Time;durP1;ratioP1;P1;durP2;ratioP2;P2;SDS_P1;SDS_P2;PMS_P1;PMS_P2;Temp;Humidity;BMP_temperature;BMP_pressure;BME280_temperature;BME280_humidity;BME280_pressure;Samples;Min_cycle;Max_cycle;Signal;HPM_P1;HPM_P2
2022/07/18 00:02:25;;;;;;;4.22;3.30;;;;;;;;;;5027112;28;20400;-51
2022/07/18 00:04:50;;;;;;;5.60;2.95;;;;;;;;;;5027721;28;20180;-51
2022/07/18 00:07:15;;;;;;;4.65;3.30;;;;;;;;;;5027351;28;20439;-52
2022/07/18 00:09:42;;;;;;;3.80;3.20;;;;;;;;;;5025857;28;20029;-52
2022/07/18 00:12:09;;;;;;;8.20;3.38;;;;;;;;;;5024735;28;20064;-53
2022/07/18 00:14:36;;;;;;;5.95;3.20;;;;;;;;;;5027954;28;20075;-51
2022/07/18 00:17:02;;;;;;;6.38;3.42;;;;;;;;;;5027353;28;20097;-53
2022/07/18 00:19:28;;;;;;;4.75;3.22;;;;;;;;;;5025400;28;20114;-51
2022/07/18 00:21:54;;;;;;;4.45;3.20;;;;;;;;;;5023967;28;20026;-53
2022/07/18 00:24:19;;;;;;;4.65;3.58;;;;;;;;;;5028185;28;20320;-51
2022/07/18 00:26:45;;;;;;;5.60;3.47;;;;;;;;;;5025562;28;20114;-50
2022/07/18 00:29:10;;;;;;;3.95;3.45;;;;;;;;;;5025749;28;20036;-51
2022/07/18 00:31:37;;;;;;;5.28;3.35;;;;;;;;;;5026585;28;20192;-51
2022/07/18 00:34:03;;;;;;;4.55;3.20;;;;;;;;;;5021156;28;20030;-51
2022/07/18 00:36:29;;;;;;;4.88;3.33;;;;;;;;;;5024962;28;20722;-50
2022/07/18 00:38:55;;;;;;;5.35;3.20;;;;;;;;;;5022458;28;20031;-53
2022/07/18 00:41:20;;;;;;;4.10;3.25;;;;;;;;;;5026687;28;20084;-51
2022/07/18 00:43:47;;;;;;;4.05;3.10;;;;;;;;;;5018411;28;20021;-52
2022/07/18 00:46:12;;;;;;;4.47;3.22;;;;;;;;;;5024729;28;20043;-53
2022/07/18 00:48:39;;;;;;;3.67;3.17;;;;;;;;;;5021779;28;20025;-53
2022/07/18 00:51:05;;;;;;;4.30;3.42;;;;;;;;;;5027419;28;20049;-51
2022/07/18 00:53:32;;;;;;;5.07;3.70;;;;;;;;;;5025765;28;20498;-52
2022/07/18 00:55:59;;;;;;;4.20;3.47;;;;;;;;;;5026655;28;20021;-51
2022/07/18 00:58:24;;;;;;;5.38;3.60;;;;;;;;;;5029553;28;20203;-52
2022/07/18 01:03:34;;;;;;;4.32;3.50;;;;;;;;;;5027917;28;20060;-50
2022/07/18 01:05:59;;;;;;;5.18;3.80;;;;;;;;;;5027695;28;20033;-52
2022/07/18 01:08:25;;;;;;;4.07;3.38;;;;;;;;;;5026216;28;20374;-53
2022/07/18 01:10:51;;;;;;;3.67;3.30;;;;;;;;;;5027099;28;20254;-51
2022/07/18 01:13:20;;;;;;;4.65;3.22;;;;;;;;;;5023731;28;20088;-51
2022/07/18 01:15:45;;;;;;;4.25;3.47;;;;;;;;;;5028480;28;20508;-53
2022/07/18 01:18:10;;;;;;;3.78;3.25;;;;;;;;;;5026343;28;20164;-52
2022/07/18 01:20:36;;;;;;;5.43;3.75;;;;;;;;;;5024653;28;20021;-52
2022/07/18 01:23:01;;;;;;;4.43;3.35;;;;;;;;;;5023563;28;20188;-54
2022/07/18 01:25:27;;;;;;;4.10;3.70;;;;;;;;;;5026066;28;20044;-52
2022/07/18 01:27:53;;;;;;;5.70;3.72;;;;;;;;;;5026110;28;20036;-52
2022/07/18 01:30:19;;;;;;;5.40;3.53;;;;;;;;;;5026426;28;20057;-51
2022/07/18 01:32:45;;;;;;;5.13;3.33;;;;;;;;;;5020779;28;20128;-51
2022/07/18 01:35:11;;;;;;;4.45;3.30;;;;;;;;;;5022200;28;20029;-54
2022/07/18 01:37:36;;;;;;;5.28;3.10;;;;;;;;;;5029786;28;20394;-52
2022/07/18 01:40:08;;;;;;;5.20;3.40;;;;;;;;;;5025769;28;20060;-51
2022/07/18 01:42:33;;;;;;;4.25;3.33;;;;;;;;;;5028255;28;20029;-53
2022/07/18 01:44:58;;;;;;;4.22;3.42;;;;;;;;;;5026895;28;20468;-51
2022/07/18 01:47:24;;;;;;;4.30;3.17;;;;;;;;;;5031179;28;20148;-55
2022/07/18 01:49:49;;;;;;;5.70;3.65;;;;;;;;;;5024822;28;20308;-50
2022/07/18 01:52:15;;;;;;;5.38;3.03;;;;;;;;;;5029952;28;20060;-51
2022/07/18 01:54:40;;;;;;;4.20;3.45;;;;;;;;;;5023385;28;20131;-52
2022/07/18 01:57:06;;;;;;;8.13;3.72;;;;;;;;;;5031559;28;20049;-53
2022/07/18 01:59:32;;;;;;;4.55;3.20;;;;;;;;;;5032030;28;20163;-54
2022/07/18 02:01:58;;;;;;;4.78;3.35;;;;;;;;;;5030067;28;20108;-53
2022/07/18 02:04:59;;;;;;;5.07;3.92;;;;;;;;;;5028053;28;20039;-52
2022/07/18 02:07:08;;;;;;;5.20;3.17;;;;;;;;;;5028811;28;20087;-52
2022/07/18 02:09:34;;;;;;;6.20;3.13;;;;;;;;;;5028949;28;20041;-52
2022/07/18 02:11:59;;;;;;;3.42;3.10;;;;;;;;;;5028081;28;20139;-52
2022/07/18 02:14:25;;;;;;;3.70;2.70;;;;;;;;;;5027919;28;20061;-54
2022/07/18 02:16:50;;;;;;;3.60;3.05;;;;;;;;;;5031485;28;20264;-54
2022/07/18 02:19:15;;;;;;;4.22;3.00;;;;;;;;;;5028225;28;20120;-52
2022/07/18 02:21:41;;;;;;;4.18;3.08;;;;;;;;;;5027915;28;20079;-53
2022/07/18 02:24:07;;;;;;;4.70;2.90;;;;;;;;;;5027636;28;20030;-52
2022/07/18 02:26:32;;;;;;;5.35;3.25;;;;;;;;;;5029298;28;20410;-54
2022/07/18 02:28:57;;;;;;;7.32;2.90;;;;;;;;;;5026187;28;20037;-52
2022/07/18 02:31:23;;;;;;;4.15;2.80;;;;;;;;;;5026625;28;20116;-50
2022/07/18 02:33:48;;;;;;;6.82;3.30;;;;;;;;;;5025321;28;20088;-50
2022/07/18 02:36:14;;;;;;;3.30;2.60;;;;;;;;;;5029358;28;20033;-53
2022/07/18 02:38:39;;;;;;;3.80;2.70;;;;;;;;;;5027411;28;20025;-51
2022/07/18 02:41:05;;;;;;;3.53;2.67;;;;;;;;;;5026432;28;20087;-51
2022/07/18 02:43:30;;;;;;;4.15;2.92;;;;;;;;;;5023975;28;20021;-52
2022/07/18 02:45:56;;;;;;;5.22;3.05;;;;;;;;;;5025710;28;20022;-51
2022/07/18 02:48:21;;;;;;;5.68;2.83;;;;;;;;;;5022855;28;20137;-51
2022/07/18 02:50:46;;;;;;;4.50;3.05;;;;;;;;;;5028067;28;20794;-50
2022/07/18 02:53:12;;;;;;;5.00;2.70;;;;;;;;;;5022283;28;20025;-50
2022/07/18 02:55:37;;;;;;;4.20;2.92;;;;;;;;;;5030342;28;20493;-54
2022/07/18 02:58:03;;;;;;;3.38;2.55;;;;;;;;;;5030021;28;20025;-52
2022/07/18 03:00:28;;;;;;;4.72;2.72;;;;;;;;;;5030614;28;20041;-50
2022/07/18 03:02:53;;;;;;;3.72;2.80;;;;;;;;;;5027317;28;20084;-50
2022/07/18 03:05:19;;;;;;;4.47;2.55;;;;;;;;;;5026985;28;20100;-50
2022/07/18 03:07:44;;;;;;;4.53;2.70;;;;;;;;;;5029590;28;20503;-50
2022/07/18 03:10:10;;;;;;;6.25;2.92;;;;;;;;;;5030825;28;20550;-50
2022/07/18 03:12:35;;;;;;;5.65;3.00;;;;;;;;;;5026794;28;20021;-53
2022/07/18 03:15:01;;;;;;;7.93;2.72;;;;;;;;;;5026321;28;20030;-50
2022/07/18 03:17:26;;;;;;;3.28;2.40;;;;;;;;;;5026249;28;20175;-52
2022/07/18 03:19:51;;;;;;;3.22;2.25;;;;;;;;;;5030285;28;20022;-50
2022/07/18 03:22:17;;;;;;;4.63;2.85;;;;;;;;;;5027730;28;20037;-50
2022/07/18 03:24:42;;;;;;;4.05;2.70;;;;;;;;;;5024707;28;20026;-50
2022/07/18 03:27:08;;;;;;;2.20;1.95;;;;;;;;;;5022881;28;20037;-51
2022/07/18 03:29:33;;;;;;;4.00;2.33;;;;;;;;;;5026018;28;20112;-53
2022/07/18 03:31:59;;;;;;;4.28;2.42;;;;;;;;;;5024370;28;20028;-51
2022/07/18 03:34:24;;;;;;;3.58;2.70;;;;;;;;;;5027765;28;20036;-50
2022/07/18 03:36:50;;;;;;;4.22;2.97;;;;;;;;;;5028189;28;20026;-53
2022/07/18 03:39:15;;;;;;;5.13;2.60;;;;;;;;;;5023549;28;20049;-51
2022/07/18 03:41:41;;;;;;;4.32;2.85;;;;;;;;;;5028100;28;20031;-50
2022/07/18 03:44:07;;;;;;;4.95;2.58;;;;;;;;;;5023204;28;20033;-51
2022/07/18 03:46:32;;;;;;;5.18;3.50;;;;;;;;;;5020380;28;20052;-51
2022/07/18 03:48:58;;;;;;;8.65;2.88;;;;;;;;;;5019095;28;20152;-53
2022/07/18 03:51:24;;;;;;;6.63;2.80;;;;;;;;;;5024912;28;20127;-51
2022/07/18 03:53:50;;;;;;;6.22;2.75;;;;;;;;;;5029776;28;20025;-51
2022/07/18 03:56:15;;;;;;;6.20;3.10;;;;;;;;;;5027992;28;20045;-53
2022/07/18 03:58:41;;;;;;;9.75;3.17;;;;;;;;;;5027472;28;20118;-51
2022/07/18 04:01:07;;;;;;;9.68;2.80;;;;;;;;;;5028670;28;20267;-51
2022/07/18 04:03:32;;;;;;;7.90;3.88;;;;;;;;;;5028420;28;20097;-52
2022/07/18 04:05:58;;;;;;;10.23;3.25;;;;;;;;;;5026760;28;20113;-52
2022/07/18 04:08:23;;;;;;;7.65;2.95;;;;;;;;;;5025133;28;20128;-51
2022/07/18 04:10:49;;;;;;;8.65;3.30;;;;;;;;;;5026938;28;20478;-51
2022/07/18 04:13:14;;;;;;;6.65;2.75;;;;;;;;;;5028840;28;20133;-50
2022/07/18 04:15:40;;;;;;;4.70;2.58;;;;;;;;;;5024326;28;20029;-52
2022/07/18 04:18:07;;;;;;;3.83;2.55;;;;;;;;;;5021043;28;20062;-50
2022/07/18 04:20:33;;;;;;;4.90;2.35;;;;;;;;;;5024713;28;20116;-51
2022/07/18 04:23:01;;;;;;;5.85;3.55;;;;;;;;;;5028093;28;20105;-51
2022/07/18 04:25:28;;;;;;;4.10;2.80;;;;;;;;;;5028639;28;20117;-51
2022/07/18 04:27:55;;;;;;;4.07;2.53;;;;;;;;;;5027422;28;20033;-52
2022/07/18 04:30:23;;;;;;;4.47;2.60;;;;;;;;;;5027652;28;20025;-51
2022/07/18 04:32:48;;;;;;;11.10;4.05;;;;;;;;;;5022611;28;20736;-55
2022/07/18 04:35:14;;;;;;;10.55;4.72;;;;;;;;;;5022049;28;20036;-56
2022/07/18 04:37:42;;;;;;;5.57;3.30;;;;;;;;;;5022878;28;20059;-56
2022/07/18 04:40:09;;;;;;;8.90;3.63;;;;;;;;;;5018035;28;20394;-56
2022/07/18 04:42:36;;;;;;;5.63;3.05;;;;;;;;;;5026593;28;20455;-56
2022/07/18 04:45:02;;;;;;;5.93;3.22;;;;;;;;;;5022295;28;20029;-56
2022/07/18 04:47:27;;;;;;;3.53;2.90;;;;;;;;;;5017773;28;20033;-56
2022/07/18 04:49:53;;;;;;;5.53;3.20;;;;;;;;;;5025188;28;20033;-55
2022/07/18 04:52:19;;;;;;;5.75;2.92;;;;;;;;;;5028720;28;20021;-55
2022/07/18 04:54:44;;;;;;;4.78;3.25;;;;;;;;;;5028916;28;20137;-55
2022/07/18 04:57:11;;;;;;;4.97;2.90;;;;;;;;;;5027755;28;20036;-56
2022/07/18 04:59:38;;;;;;;5.70;2.85;;;;;;;;;;5028228;28;20048;-56
2022/07/18 05:02:09;;;;;;;7.38;3.10;;;;;;;;;;5026106;28;20060;-56
2022/07/18 05:04:36;;;;;;;6.93;3.17;;;;;;;;;;5025259;28;20113;-56
2022/07/18 05:07:02;;;;;;;22.27;10.63;;;;;;;;;;5025840;28;20411;-56
2022/07/18 05:09:28;;;;;;;13.32;7.38;;;;;;;;;;5024595;28;20039;-56
2022/07/18 05:11:53;;;;;;;7.85;4.10;;;;;;;;;;5029518;28;20025;-56
2022/07/18 05:14:20;;;;;;;10.07;5.70;;;;;;;;;;5030179;28;20168;-55
2022/07/18 05:16:46;;;;;;;14.25;7.15;;;;;;;;;;5029847;28;20167;-56
2022/07/18 05:19:11;;;;;;;22.95;9.48;;;;;;;;;;5025970;28;20129;-55
2022/07/18 05:21:37;;;;;;;12.38;6.65;;;;;;;;;;5029316;28;20104;-56
2022/07/18 05:24:02;;;;;;;6.72;4.55;;;;;;;;;;5030769;28;20542;-56
2022/07/18 05:26:28;;;;;;;6.05;3.42;;;;;;;;;;5031830;28;20059;-55
2022/07/18 05:28:53;;;;;;;7.90;4.15;;;;;;;;;;5023957;28;20091;-55
2022/07/18 05:31:18;;;;;;;14.05;4.72;;;;;;;;;;5026405;28;20034;-55
2022/07/18 05:33:44;;;;;;;5.78;4.20;;;;;;;;;;5026634;28;20027;-55
2022/07/18 05:36:10;;;;;;;7.30;3.53;;;;;;;;;;5026934;28;20467;-55
2022/07/18 05:38:35;;;;;;;4.20;3.10;;;;;;;;;;5023283;28;20029;-55
2022/07/18 05:41:01;;;;;;;5.70;3.42;;;;;;;;;;5023732;28;20053;-55
2022/07/18 05:43:26;;;;;;;4.75;3.20;;;;;;;;;;5029813;28;20104;-55
2022/07/18 05:45:52;;;;;;;11.30;4.03;;;;;;;;;;5030717;28;20034;-55
2022/07/18 05:48:17;;;;;;;5.70;3.40;;;;;;;;;;5028260;28;20453;-55
2022/07/18 05:50:44;;;;;;;5.28;3.70;;;;;;;;;;5024828;28;20475;-55
2022/07/18 05:53:09;;;;;;;7.47;3.22;;;;;;;;;;5031719;28;20033;-55
2022/07/18 05:55:35;;;;;;;5.10;3.53;;;;;;;;;;5032249;28;20021;-54
2022/07/18 05:58:00;;;;;;;11.05;3.83;;;;;;;;;;5030761;28;20029;-54
2022/07/18 06:00:26;;;;;;;7.53;4.05;;;;;;;;;;5028673;28;20052;-56
2022/07/18 06:02:51;;;;;;;6.80;3.85;;;;;;;;;;5029116;28;20358;-57
2022/07/18 06:05:17;;;;;;;4.25;3.47;;;;;;;;;;5029572;28;20482;-56
2022/07/18 06:07:43;;;;;;;11.93;4.28;;;;;;;;;;5029959;28;20040;-57
2022/07/18 06:10:09;;;;;;;5.63;3.75;;;;;;;;;;5027425;28;20120;-57
2022/07/18 06:12:34;;;;;;;5.38;4.03;;;;;;;;;;5022408;28;20709;-56
2022/07/18 06:15:00;;;;;;;7.07;5.25;;;;;;;;;;5029543;28;20034;-57
2022/07/18 06:17:27;;;;;;;12.43;7.65;;;;;;;;;;5030810;28;20037;-56
2022/07/18 06:19:53;;;;;;;25.33;12.63;;;;;;;;;;5025311;28;20034;-56
2022/07/18 06:22:19;;;;;;;20.65;12.02;;;;;;;;;;5024910;28;20212;-57
2022/07/18 06:24:45;;;;;;;12.35;8.07;;;;;;;;;;5030059;28;20029;-57
2022/07/18 06:27:10;;;;;;;12.32;6.82;;;;;;;;;;5028345;28;20111;-57
2022/07/18 06:29:35;;;;;;;7.10;4.35;;;;;;;;;;5029685;28;20478;-57
2022/07/18 06:32:01;;;;;;;6.72;3.85;;;;;;;;;;5024286;28;20037;-57
2022/07/18 06:34:26;;;;;;;4.82;3.88;;;;;;;;;;5026846;28;20036;-56
2022/07/18 06:36:52;;;;;;;4.55;3.10;;;;;;;;;;5028216;28;20108;-56
2022/07/18 06:39:18;;;;;;;7.20;3.40;;;;;;;;;;5025324;28;20512;-56
2022/07/18 06:41:44;;;;;;;6.43;3.58;;;;;;;;;;5020406;28;20444;-56
2022/07/18 06:44:09;;;;;;;4.47;3.30;;;;;;;;;;5024956;28;20052;-56
2022/07/18 06:46:36;;;;;;;4.85;3.60;;;;;;;;;;5030965;28;20030;-56
2022/07/18 06:49:02;;;;;;;5.80;3.80;;;;;;;;;;5023434;28;20549;-56
2022/07/18 06:51:27;;;;;;;5.22;4.00;;;;;;;;;;5030470;28;20480;-57
2022/07/18 06:53:53;;;;;;;5.05;4.00;;;;;;;;;;5030209;28;20318;-57
2022/07/18 06:56:18;;;;;;;4.88;3.83;;;;;;;;;;5031377;28;20048;-57
2022/07/18 06:58:48;;;;;;;8.10;4.25;;;;;;;;;;5028567;28;20490;-57
2022/07/18 07:01:17;;;;;;;6.68;4.20;;;;;;;;;;5025960;28;20041;-57
2022/07/18 07:03:43;;;;;;;6.47;4.25;;;;;;;;;;5029150;28;20422;-57
2022/07/18 07:06:08;;;;;;;4.25;3.88;;;;;;;;;;5030304;28;20030;-57
2022/07/18 07:08:34;;;;;;;10.35;4.60;;;;;;;;;;5028295;28;20018;-57
2022/07/18 07:11:00;;;;;;;7.35;4.30;;;;;;;;;;5027049;28;20040;-56
2022/07/18 07:13:25;;;;;;;6.60;4.60;;;;;;;;;;5028089;28;20543;-57
2022/07/18 07:15:50;;;;;;;6.70;3.60;;;;;;;;;;5027100;28;20026;-56
2022/07/18 07:18:16;;;;;;;4.60;3.83;;;;;;;;;;5025928;28;20045;-57
2022/07/18 07:20:41;;;;;;;6.57;4.20;;;;;;;;;;5028088;28;20491;-56
2022/07/18 07:23:09;;;;;;;5.07;4.10;;;;;;;;;;5023311;28;20033;-57
2022/07/18 07:25:36;;;;;;;7.38;4.25;;;;;;;;;;5023376;28;20464;-57
2022/07/18 07:28:02;;;;;;;4.43;3.58;;;;;;;;;;5025075;28;20031;-57
2022/07/18 07:30:28;;;;;;;7.30;4.20;;;;;;;;;;5025961;28;20033;-56
2022/07/18 07:32:53;;;;;;;9.88;4.20;;;;;;;;;;5027188;28;20442;-57
2022/07/18 07:35:20;;;;;;;8.98;4.30;;;;;;;;;;5027706;28;20398;-57
2022/07/18 07:37:49;;;;;;;5.90;4.35;;;;;;;;;;5026008;28;20180;-57
2022/07/18 07:40:15;;;;;;;5.15;3.90;;;;;;;;;;5023517;28;20017;-56
2022/07/18 07:42:41;;;;;;;5.07;4.25;;;;;;;;;;5019372;28;20025;-57
2022/07/18 07:45:07;;;;;;;6.88;4.00;;;;;;;;;;5020246;28;20029;-57
2022/07/18 07:47:34;;;;;;;9.82;4.32;;;;;;;;;;5025677;28;20396;-57
2022/07/18 07:50:00;;;;;;;7.53;3.72;;;;;;;;;;5019703;28;20030;-56
2022/07/18 07:52:27;;;;;;;5.97;3.83;;;;;;;;;;5028521;28;20038;-57
2022/07/18 07:54:53;;;;;;;5.35;4.00;;;;;;;;;;5029373;28;20025;-58
2022/07/18 07:57:19;;;;;;;5.13;3.55;;;;;;;;;;5029029;28;20045;-57
2022/07/18 07:59:44;;;;;;;6.32;4.32;;;;;;;;;;5026563;28;20029;-56
2022/07/18 08:02:10;;;;;;;7.55;4.28;;;;;;;;;;5020032;28;20035;-57
2022/07/18 08:04:36;;;;;;;5.95;3.83;;;;;;;;;;5027408;28;20056;-58
2022/07/18 08:07:01;;;;;;;6.65;4.28;;;;;;;;;;5029739;28;20117;-56
2022/07/18 08:09:27;;;;;;;6.70;4.25;;;;;;;;;;5024432;28;20693;-57
2022/07/18 08:11:52;;;;;;;5.00;3.78;;;;;;;;;;5027795;28;20404;-56
2022/07/18 08:14:18;;;;;;;4.82;3.92;;;;;;;;;;5023269;28;20429;-57
2022/07/18 08:16:43;;;;;;;5.97;4.05;;;;;;;;;;5025956;28;20136;-58
2022/07/18 08:19:09;;;;;;;6.50;4.05;;;;;;;;;;5025986;28;20116;-57
2022/07/18 08:21:34;;;;;;;7.90;4.30;;;;;;;;;;5025674;28;20025;-56
2022/07/18 08:24:00;;;;;;;6.05;4.57;;;;;;;;;;5024099;28;20137;-56
2022/07/18 08:26:25;;;;;;;8.75;4.18;;;;;;;;;;5023923;28;20034;-56
2022/07/18 08:28:51;;;;;;;6.40;4.25;;;;;;;;;;5029046;28;20029;-56
2022/07/18 08:31:18;;;;;;;9.68;4.45;;;;;;;;;;5025370;28;20040;-56
2022/07/18 08:33:44;;;;;;;7.35;4.72;;;;;;;;;;5028445;28;20030;-56
2022/07/18 08:36:10;;;;;;;5.85;4.43;;;;;;;;;;5023129;28;20160;-56
2022/07/18 08:38:35;;;;;;;7.60;4.35;;;;;;;;;;5025182;28;20462;-56
2022/07/18 08:41:01;;;;;;;7.63;4.20;;;;;;;;;;5020844;28;20557;-57
2022/07/18 08:43:27;;;;;;;7.57;4.22;;;;;;;;;;5023673;28;20021;-56
2022/07/18 08:45:56;;;;;;;5.47;4.80;;;;;;;;;;5019271;28;20029;-56
2022/07/18 08:48:22;;;;;;;8.10;5.32;;;;;;;;;;5029270;28;20026;-56
2022/07/18 08:50:49;;;;;;;6.93;4.60;;;;;;;;;;5028470;28;20364;-56
2022/07/18 08:53:16;;;;;;;7.30;4.78;;;;;;;;;;5027902;28;20038;-56
2022/07/18 08:55:43;;;;;;;7.85;4.85;;;;;;;;;;5028646;28;20124;-56
2022/07/18 08:58:09;;;;;;;8.80;4.65;;;;;;;;;;5026897;28;20048;-56
2022/07/18 09:00:35;;;;;;;5.82;4.63;;;;;;;;;;5026126;28;20037;-56
2022/07/18 09:03:03;;;;;;;9.55;4.70;;;;;;;;;;5026243;28;20021;-56
2022/07/18 09:05:29;;;;;;;6.70;4.60;;;;;;;;;;5027302;28;20104;-56
2022/07/18 09:08:19;;;;;;;12.68;4.72;;;;;;;;;;5024591;28;20025;-56
2022/07/18 09:10:58;;;;;;;12.23;5.22;;;;;;;;;;5020007;28;20068;-57
2022/07/18 09:13:35;;;;;;;10.20;4.90;;;;;;;;;;5024488;28;20033;-56
2022/07/18 09:16:13;;;;;;;5.95;4.57;;;;;;;;;;5022843;28;20026;-56
2022/07/18 09:18:44;;;;;;;6.72;4.72;;;;;;;;;;5027285;28;20491;-57
2022/07/18 09:21:18;;;;;;;6.50;4.55;;;;;;;;;;5024272;28;20391;-57
2022/07/18 09:23:48;;;;;;;8.00;5.13;;;;;;;;;;5028424;28;20479;-62
2022/07/18 09:26:36;;;;;;;6.32;4.75;;;;;;;;;;5021814;28;20029;-57
2022/07/18 09:29:02;;;;;;;5.65;4.50;;;;;;;;;;5021840;28;20103;-57
2022/07/18 09:31:28;;;;;;;6.35;4.75;;;;;;;;;;5022322;28;20500;-57
2022/07/18 09:34:03;;;;;;;10.57;4.93;;;;;;;;;;5027045;28;20055;-57
2022/07/18 09:36:33;;;;;;;5.28;4.82;;;;;;;;;;5026353;28;20071;-57
2022/07/18 09:38:59;;;;;;;5.15;4.40;;;;;;;;;;5027341;28;20029;-57
2022/07/18 09:41:32;;;;;;;15.55;5.30;;;;;;;;;;5027371;28;20032;-56
2022/07/18 09:43:58;;;;;;;5.05;4.55;;;;;;;;;;5025628;28;20025;-56
2022/07/18 09:46:23;;;;;;;7.20;4.78;;;;;;;;;;5019179;28;20071;-57
2022/07/18 09:49:08;;;;;;;7.80;4.80;;;;;;;;;;5021140;28;20048;-57
2022/07/18 09:51:33;;;;;;;5.10;4.60;;;;;;;;;;5028441;28;20044;-56
2022/07/18 09:54:01;;;;;;;5.78;4.80;;;;;;;;;;5028490;28;20492;-57
2022/07/18 09:56:27;;;;;;;5.38;4.88;;;;;;;;;;5025943;28;20037;-57
2022/07/18 09:58:56;;;;;;;5.63;4.32;;;;;;;;;;5029816;28;20029;-57
2022/07/18 10:01:22;;;;;;;;;;;;;;;;;;5031432;28;20356;-56
2022/07/18 10:03:50;;;;;;;7.82;4.70;;;;;;;;;;5027754;28;19927;-57
2022/07/18 10:06:18;;;;;;;8.15;3.97;;;;;;;;;;5024968;28;20399;-58
2022/07/18 10:08:44;;;;;;;6.03;4.35;;;;;;;;;;5031444;28;20471;-58
2022/07/18 10:11:09;;;;;;;4.97;4.03;;;;;;;;;;5028678;28;20079;-56
2022/07/18 10:13:37;;;;;;;5.80;4.10;;;;;;;;;;5028583;28;20029;-57
2022/07/18 10:16:03;;;;;;;7.85;4.13;;;;;;;;;;5025572;28;20049;-57
2022/07/18 10:18:33;;;;;;;4.65;4.18;;;;;;;;;;5027392;28;20047;-56
2022/07/18 10:20:58;;;;;;;9.15;4.50;;;;;;;;;;5027202;28;20108;-57
2022/07/18 10:23:27;;;;;;;5.43;3.92;;;;;;;;;;5031267;28;20575;-57
2022/07/18 10:26:11;;;;;;;10.57;4.30;;;;;;;;;;5026156;28;20076;-57
2022/07/18 10:29:00;;;;;;;8.82;4.28;;;;;;;;;;5023313;28;20033;-57
2022/07/18 10:31:26;;;;;;;8.95;4.13;;;;;;;;;;5021469;28;20025;-57
2022/07/18 10:33:53;;;;;;;5.18;4.40;;;;;;;;;;5021751;28;20088;-57
2022/07/18 10:36:20;;;;;;;8.13;3.90;;;;;;;;;;5028096;28;20390;-57
2022/07/18 10:39:20;;;;;;;7.65;4.07;;;;;;;;;;5029548;28;20083;-57
2022/07/18 10:41:51;;;;;;;7.32;3.70;;;;;;;;;;5022846;28;20036;-58
2022/07/18 10:44:31;;;;;;;8.95;4.28;;;;;;;;;;5024045;28;20026;-58
2022/07/18 10:47:02;;;;;;;7.60;4.20;;;;;;;;;;5026593;28;20033;-58
2022/07/18 10:49:49;;;;;;;5.55;4.18;;;;;;;;;;5029665;28;20527;-58
2022/07/18 10:52:32;;;;;;;6.72;3.70;;;;;;;;;;5029607;28;20029;-58
2022/07/18 10:55:06;;;;;;;5.85;3.60;;;;;;;;;;5029236;28;20388;-58
2022/07/18 10:57:32;;;;;;;6.85;3.92;;;;;;;;;;5028130;28;20044;-58
2022/07/18 11:00:07;;;;;;;5.97;3.70;;;;;;;;;;5029214;28;20112;-58
2022/07/18 11:02:37;;;;;;;4.55;3.60;;;;;;;;;;5027556;28;20415;-58
2022/07/18 11:05:23;;;;;;;4.93;3.78;;;;;;;;;;5028802;28;20121;-58
2022/07/18 11:07:58;;;;;;;4.35;3.95;;;;;;;;;;5023833;28;20021;-58
2022/07/18 11:10:45;;;;;;;4.45;3.88;;;;;;;;;;5028944;28;20033;-58
2022/07/18 11:13:28;;;;;;;5.30;3.40;;;;;;;;;;5024301;28;20483;-58
2022/07/18 11:16:07;;;;;;;5.60;4.00;;;;;;;;;;5032125;28;20036;-58
2022/07/18 11:18:39;;;;;;;6.50;3.83;;;;;;;;;;5025816;28;20036;-58
2022/07/18 11:21:21;;;;;;;5.53;3.47;;;;;;;;;;5024819;28;20040;-58
2022/07/18 11:23:52;;;;;;;5.68;3.35;;;;;;;;;;5022856;28;20025;-58
2022/07/18 11:26:20;;;;;;;5.47;3.50;;;;;;;;;;5025795;28;20032;-58
2022/07/18 11:28:56;;;;;;;5.53;3.63;;;;;;;;;;5024895;28;20032;-58
2022/07/18 11:31:22;;;;;;;4.13;3.53;;;;;;;;;;5025535;28;20368;-58
2022/07/18 11:33:49;;;;;;;5.70;3.47;;;;;;;;;;5025788;28;20044;-58
2022/07/18 11:36:17;;;;;;;6.80;3.67;;;;;;;;;;5023989;28;20035;-58
2022/07/18 11:38:54;;;;;;;5.40;3.45;;;;;;;;;;5020945;28;20084;-58
2022/07/18 11:41:20;;;;;;;4.15;3.60;;;;;;;;;;5021537;28;20383;-58
2022/07/18 11:43:48;;;;;;;5.35;3.50;;;;;;;;;;5021602;28;20028;-59
2022/07/18 11:46:15;;;;;;;7.25;3.97;;;;;;;;;;5020205;28;20044;-57
2022/07/18 11:48:56;;;;;;;5.43;3.60;;;;;;;;;;5029661;28;20479;-57
2022/07/18 11:51:21;;;;;;;4.45;3.40;;;;;;;;;;5028421;28;20044;-57
2022/07/18 11:53:49;;;;;;;3.72;3.40;;;;;;;;;;5028380;28;20034;-57
2022/07/18 11:56:16;;;;;;;4.63;3.58;;;;;;;;;;5026324;28;20029;-58
2022/07/18 11:58:44;;;;;;;6.70;3.50;;;;;;;;;;5021812;28;20038;-58
2022/07/18 12:01:09;;;;;;;3.72;3.30;;;;;;;;;;5028194;28;20052;-60
2022/07/18 12:03:41;;;;;;;4.53;3.45;;;;;;;;;;5028328;28;20021;-58
2022/07/18 12:06:17;;;;;;;7.72;3.38;;;;;;;;;;5027186;28;20674;-59
2022/07/18 12:08:44;;;;;;;6.32;3.20;;;;;;;;;;5023998;28;20395;-59
2022/07/18 12:11:29;;;;;;;4.80;3.33;;;;;;;;;;5024148;28;20083;-59
2022/07/18 12:14:07;;;;;;;4.88;3.55;;;;;;;;;;5027129;28;20125;-58
2022/07/18 12:16:47;;;;;;;6.35;3.00;;;;;;;;;;5027573;28;20128;-59
2022/07/18 12:19:21;;;;;;;6.47;3.45;;;;;;;;;;5027617;28;20546;-59
2022/07/18 12:22:16;;;;;;;4.95;3.42;;;;;;;;;;5024309;28;20116;-58
2022/07/18 12:24:50;;;;;;;6.13;3.17;;;;;;;;;;5024277;28;20044;-60
2022/07/18 12:27:36;;;;;;;5.80;3.50;;;;;;;;;;5021983;28;20025;-59
2022/07/18 12:30:12;;;;;;;3.53;2.95;;;;;;;;;;5023668;28;20546;-60
2022/07/18 12:32:45;;;;;;;4.97;3.50;;;;;;;;;;5025384;28;20570;-59
2022/07/18 12:35:13;;;;;;;3.63;3.10;;;;;;;;;;5024608;28;20436;-59
2022/07/18 12:37:39;;;;;;;6.35;3.58;;;;;;;;;;5027591;28;20068;-59
2022/07/18 12:40:10;;;;;;;5.18;3.80;;;;;;;;;;5021833;28;20045;-59
2022/07/18 12:42:41;;;;;;;4.20;3.40;;;;;;;;;;5020864;28;20033;-59
2022/07/18 12:45:08;;;;;;;6.05;3.33;;;;;;;;;;5029857;28;20060;-59
2022/07/18 12:47:33;;;;;;;5.20;3.38;;;;;;;;;;5028804;28;20108;-59
2022/07/18 12:49:59;;;;;;;11.43;3.53;;;;;;;;;;5028145;28;20113;-59
2022/07/18 12:52:24;;;;;;;4.95;3.25;;;;;;;;;;5027690;28;20047;-59
2022/07/18 12:54:50;;;;;;;6.28;3.53;;;;;;;;;;5027035;28;20428;-59
2022/07/18 12:57:16;;;;;;;6.28;3.53;;;;;;;;;;5025595;28;20068;-59
2022/07/18 12:59:43;;;;;;;5.65;3.28;;;;;;;;;;5026736;28;20422;-59
2022/07/18 13:02:09;;;;;;;4.90;3.50;;;;;;;;;;5022002;28;20041;-59
2022/07/18 13:04:35;;;;;;;4.55;3.17;;;;;;;;;;5026794;28;20018;-59
2022/07/18 13:07:00;;;;;;;5.30;3.63;;;;;;;;;;5024081;28;20032;-59
2022/07/18 13:09:25;;;;;;;5.78;3.53;;;;;;;;;;5028233;28;20511;-59
2022/07/18 13:11:51;;;;;;;8.15;3.47;;;;;;;;;;5025102;28;20052;-59
2022/07/18 13:14:17;;;;;;;4.50;3.10;;;;;;;;;;5025361;28;20416;-58
2022/07/18 13:16:47;;;;;;;3.67;3.10;;;;;;;;;;5023994;28;20438;-58
2022/07/18 13:19:13;;;;;;;4.95;3.20;;;;;;;;;;5024292;28;20035;-58
2022/07/18 13:21:39;;;;;;;6.95;3.15;;;;;;;;;;5026442;28;20052;-58
2022/07/18 13:24:05;;;;;;;3.88;2.95;;;;;;;;;;5028430;28;20455;-57
2022/07/18 13:26:30;;;;;;;6.25;3.20;;;;;;;;;;5025775;28;20406;-57
2022/07/18 13:28:56;;;;;;;6.50;3.10;;;;;;;;;;5026091;28;20447;-56
2022/07/18 13:31:21;;;;;;;5.20;3.28;;;;;;;;;;5027748;28;20037;-56
2022/07/18 13:33:52;;;;;;;4.13;3.25;;;;;;;;;;5026457;28;20036;-58
2022/07/18 13:36:18;;;;;;;6.07;3.20;;;;;;;;;;5026992;28;20060;-56
2022/07/18 13:38:44;;;;;;;3.90;3.00;;;;;;;;;;5020368;28;20025;-58
2022/07/18 13:41:10;;;;;;;4.95;3.22;;;;;;;;;;5028528;28;20035;-57
2022/07/18 13:43:39;;;;;;;6.47;2.97;;;;;;;;;;5032143;28;20540;-57
2022/07/18 13:46:05;;;;;;;6.38;3.28;;;;;;;;;;5032698;28;20045;-57
2022/07/18 13:48:30;;;;;;;4.88;3.40;;;;;;;;;;5030698;28;20025;-57
2022/07/18 13:50:56;;;;;;;3.38;3.00;;;;;;;;;;5031213;28;20021;-58
2022/07/18 13:53:22;;;;;;;5.43;3.00;;;;;;;;;;5030842;28;20030;-58
2022/07/18 13:55:47;;;;;;;4.13;3.10;;;;;;;;;;5029701;28;20025;-58
2022/07/18 13:58:13;;;;;;;9.52;3.08;;;;;;;;;;5033006;28;20272;-58
2022/07/18 14:00:38;;;;;;;6.22;3.45;;;;;;;;;;5031600;28;20596;-58
2022/07/18 14:03:05;;;;;;;4.63;3.13;;;;;;;;;;5032731;28;20045;-59
2022/07/18 14:05:30;;;;;;;8.45;3.33;;;;;;;;;;5031416;28;20052;-59
2022/07/18 14:07:56;;;;;;;5.95;3.20;;;;;;;;;;5027745;28;20052;-57
2022/07/18 14:10:21;;;;;;;4.82;3.45;;;;;;;;;;5026869;28;20096;-57
2022/07/18 14:12:47;;;;;;;7.55;3.10;;;;;;;;;;5030506;28;20039;-58
2022/07/18 14:15:12;;;;;;;6.93;3.10;;;;;;;;;;5028499;28;20030;-57
2022/07/18 14:17:38;;;;;;;6.50;3.00;;;;;;;;;;5025547;28;20509;-57
2022/07/18 14:20:06;;;;;;;8.77;3.45;;;;;;;;;;5022567;28;20029;-57
2022/07/18 14:22:31;;;;;;;;;;;;;;;;;;5031418;28;20040;-57
2022/07/18 14:24:57;;;;;;;6.23;3.00;;;;;;;;;;5028365;28;19917;-58
2022/07/18 14:27:22;;;;;;;3.40;2.88;;;;;;;;;;5025602;28;20332;-57
2022/07/18 14:29:48;;;;;;;4.55;3.10;;;;;;;;;;5022585;28;20403;-57
2022/07/18 14:32:13;;;;;;;7.25;3.55;;;;;;;;;;5028901;28;20455;-58
2022/07/18 14:34:38;;;;;;;4.03;3.08;;;;;;;;;;5028797;28;20029;-57
2022/07/18 14:37:04;;;;;;;4.68;3.30;;;;;;;;;;5029903;28;20036;-57
2022/07/18 14:39:29;;;;;;;6.85;3.30;;;;;;;;;;5027726;28;20033;-58
2022/07/18 14:41:57;;;;;;;5.53;3.55;;;;;;;;;;5026717;28;20033;-58
2022/07/18 14:44:22;;;;;;;5.68;3.08;;;;;;;;;;5033085;28;20116;-61
2022/07/18 14:46:47;;;;;;;4.35;2.97;;;;;;;;;;5030224;28;20112;-60
2022/07/18 14:49:13;;;;;;;3.55;3.22;;;;;;;;;;5028281;28;20036;-63